sensor_id;sensor_type;location;lat;lon;timestamp;P1;durP1;ratioP1;P2;durP2;ratioP2
77220;SDS011;66217;50.004;8.266;2023-06-26T10:58:29;7.47;;;5.38;;
77220;SDS011;66217;50.004;8.266;2023-06-26T11:06:24;6.25;;;5.05;;
77220;SDS011;66217;50.004;8.266;2023-06-26T11:08:50;7.95;;;4.40;;
77220;SDS011;66217;50.004;8.266;2023-06-26T11:11:18;5.70;;;4.57;;
77220;SDS011;66217;50.004;8.266;2023-06-26T11:13:45;7.43;;;5.07;;
77220;SDS011;66217;50.004;8.266;2023-06-26T11:16:11;6.35;;;5.00;;
77220;SDS011;66217;50.004;8.266;2023-06-26T11:18:38;8.15;;;5.25;;
77220;SDS011;66217;50.004;8.266;2023-06-26T11:21:07;8.32;;;5.20;;
77220;SDS011;66217;50.004;8.266;2023-06-26T11:23:34;8.10;;;5.28;;
77220;SDS011;66217;50.004;8.266;2023-06-26T11:26:19;8.02;;;5.85;;
77220;SDS011;66217;50.004;8.266;2023-06-26T11:28:52;6.18;;;5.55;;
77220;SDS011;66217;50.004;8.266;2023-06-26T11:31:23;7.47;;;5.82;;
77220;SDS011;66217;50.004;8.266;2023-06-26T11:34:00;10.55;;;6.22;;
77220;SDS011;66217;50.004;8.266;2023-06-26T11:36:28;7.40;;;6.10;;
77220;SDS011;66217;50.004;8.266;2023-06-26T11:38:54;8.70;;;6.57;;
77220;SDS011;66217;50.004;8.266;2023-06-26T11:41:27;8.60;;;7.00;;
77220;SDS011;66217;50.004;8.266;2023-06-26T11:43:54;7.97;;;6.78;;
77220;SDS011;66217;50.004;8.266;2023-06-26T11:46:21;9.55;;;6.75;;
77220;SDS011;66217;50.004;8.266;2023-06-26T11:48:48;11.10;;;7.30;;
77220;SDS011;66217;50.004;8.266;2023-06-26T11:51:14;11.30;;;8.07;;
77220;SDS011;66217;50.004;8.266;2023-06-26T11:53:40;9.82;;;6.95;;
77220;SDS011;66217;50.004;8.266;2023-06-26T11:56:07;11.32;;;7.78;;
77220;SDS011;66217;50.004;8.266;2023-06-26T11:58:54;11.60;;;8.18;;
77220;SDS011;66217;50.004;8.266;2023-06-26T12:01:37;11.50;;;7.82;;
77220;SDS011;66217;50.004;8.266;2023-06-26T12:04:04;16.35;;;9.40;;
77220;SDS011;66217;50.004;8.266;2023-06-26T12:06:31;16.08;;;10.20;;
77220;SDS011;66217;50.004;8.266;2023-06-26T12:08:59;10.20;;;6.85;;
77220;SDS011;66217;50.004;8.266;2023-06-26T12:11:30;12.88;;;8.48;;
77220;SDS011;66217;50.004;8.266;2023-06-26T12:13:57;10.48;;;6.18;;
77220;SDS011;66217;50.004;8.266;2023-06-26T12:16:23;10.20;;;5.82;;
77220;SDS011;66217;50.004;8.266;2023-06-26T12:18:48;8.73;;;6.05;;
77220;SDS011;66217;50.004;8.266;2023-06-26T12:24:06;8.15;;;5.60;;
77220;SDS011;66217;50.004;8.266;2023-06-26T12:26:33;9.38;;;4.97;;
77220;SDS011;66217;50.004;8.266;2023-06-26T12:29:02;5.70;;;4.70;;
77220;SDS011;66217;50.004;8.266;2023-06-26T12:33:53;14.25;;;7.93;;
77220;SDS011;66217;50.004;8.266;2023-06-26T12:36:19;11.18;;;5.68;;
77220;SDS011;66217;50.004;8.266;2023-06-26T12:38:45;8.10;;;5.57;;
77220;SDS011;66217;50.004;8.266;2023-06-26T12:41:14;8.80;;;5.32;;
77220;SDS011;66217;50.004;8.266;2023-06-26T12:43:41;11.80;;;5.45;;
77220;SDS011;66217;50.004;8.266;2023-06-26T12:46:07;9.80;;;4.97;;
77220;SDS011;66217;50.004;8.266;2023-06-26T12:48:42;8.52;;;4.85;;
77220;SDS011;66217;50.004;8.266;2023-06-26T12:51:09;9.93;;;4.60;;
77220;SDS011;66217;50.004;8.266;2023-06-26T12:53:35;9.73;;;5.10;;
77220;SDS011;66217;50.004;8.266;2023-06-26T12:56:01;7.00;;;4.90;;
77220;SDS011;66217;50.004;8.266;2023-06-26T12:58:27;10.02;;;4.85;;
77220;SDS011;66217;50.004;8.266;2023-06-26T13:00:52;10.55;;;4.63;;
77220;SDS011;66217;50.004;8.266;2023-06-26T13:03:19;7.72;;;4.13;;
77220;SDS011;66217;50.004;8.266;2023-06-26T13:05:46;7.07;;;4.15;;
77220;SDS011;66217;50.004;8.266;2023-06-26T13:08:11;6.22;;;4.38;;
77220;SDS011;66217;50.004;8.266;2023-06-26T13:10:37;5.93;;;4.30;;
77220;SDS011;66217;50.004;8.266;2023-06-26T13:13:02;11.75;;;4.88;;
77220;SDS011;66217;50.004;8.266;2023-06-26T13:15:28;7.47;;;4.00;;
77220;SDS011;66217;50.004;8.266;2023-06-26T13:17:53;7.95;;;4.07;;
77220;SDS011;66217;50.004;8.266;2023-06-26T13:20:18;9.07;;;3.78;;
77220;SDS011;66217;50.004;8.266;2023-06-26T13:22:44;6.03;;;3.40;;
77220;SDS011;66217;50.004;8.266;2023-06-26T13:25:11;9.10;;;4.07;;
77220;SDS011;66217;50.004;8.266;2023-06-26T13:27:37;9.93;;;3.88;;
77220;SDS011;66217;50.004;8.266;2023-06-26T13:30:02;10.13;;;3.60;;
77220;SDS011;66217;50.004;8.266;2023-06-26T13:32:28;9.23;;;3.58;;
77220;SDS011;66217;50.004;8.266;2023-06-26T13:34:53;9.23;;;3.42;;
77220;SDS011;66217;50.004;8.266;2023-06-26T13:37:19;9.75;;;3.33;;
77220;SDS011;66217;50.004;8.266;2023-06-26T13:39:44;6.70;;;3.58;;
77220;SDS011;66217;50.004;8.266;2023-06-26T13:42:15;9.27;;;3.67;;
77220;SDS011;66217;50.004;8.266;2023-06-26T13:44:41;12.45;;;3.88;;
77220;SDS011;66217;50.004;8.266;2023-06-26T13:47:07;10.23;;;3.90;;
77220;SDS011;66217;50.004;8.266;2023-06-26T13:49:32;7.88;;;3.45;;
77220;SDS011;66217;50.004;8.266;2023-06-26T13:51:58;6.60;;;3.70;;
77220;SDS011;66217;50.004;8.266;2023-06-26T13:54:23;5.78;;;3.20;;
77220;SDS011;66217;50.004;8.266;2023-06-26T13:56:49;9.60;;;3.67;;
77220;SDS011;66217;50.004;8.266;2023-06-26T13:59:14;9.50;;;3.40;;
77220;SDS011;66217;50.004;8.266;2023-06-26T14:01:40;9.57;;;3.58;;
77220;SDS011;66217;50.004;8.266;2023-06-26T14:04:07;5.82;;;3.00;;
77220;SDS011;66217;50.004;8.266;2023-06-26T14:06:33;5.95;;;2.95;;
77220;SDS011;66217;50.004;8.266;2023-06-26T14:08:59;9.85;;;2.88;;
77220;SDS011;66217;50.004;8.266;2023-06-26T14:11:25;7.20;;;3.00;;
77220;SDS011;66217;50.004;8.266;2023-06-26T14:13:50;7.10;;;2.85;;
77220;SDS011;66217;50.004;8.266;2023-06-26T14:16:16;7.93;;;3.53;;
77220;SDS011;66217;50.004;8.266;2023-06-26T14:18:43;14.85;;;3.03;;
77220;SDS011;66217;50.004;8.266;2023-06-26T14:21:08;7.72;;;2.92;;
77220;SDS011;66217;50.004;8.266;2023-06-26T14:23:34;9.85;;;3.00;;
77220;SDS011;66217;50.004;8.266;2023-06-26T14:26:00;10.88;;;3.05;;
77220;SDS011;66217;50.004;8.266;2023-06-26T14:28:25;8.77;;;3.17;;
77220;SDS011;66217;50.004;8.266;2023-06-26T14:30:51;8.52;;;2.58;;
77220;SDS011;66217;50.004;8.266;2023-06-26T14:33:16;5.32;;;2.88;;
77220;SDS011;66217;50.004;8.266;2023-06-26T14:35:41;8.23;;;2.78;;
77220;SDS011;66217;50.004;8.266;2023-06-26T14:38:07;7.47;;;2.33;;
77220;SDS011;66217;50.004;8.266;2023-06-26T14:40:32;6.05;;;2.63;;
77220;SDS011;66217;50.004;8.266;2023-06-26T14:42:58;7.85;;;2.70;;
77220;SDS011;66217;50.004;8.266;2023-06-26T14:45:23;6.20;;;2.47;;
77220;SDS011;66217;50.004;8.266;2023-06-26T14:47:49;8.10;;;2.33;;
77220;SDS011;66217;50.004;8.266;2023-06-26T14:50:15;7.50;;;2.65;;
77220;SDS011;66217;50.004;8.266;2023-06-26T14:52:41;6.47;;;2.88;;
77220;SDS011;66217;50.004;8.266;2023-06-26T14:55:06;6.55;;;2.42;;
77220;SDS011;66217;50.004;8.266;2023-06-26T14:57:32;8.25;;;2.28;;
77220;SDS011;66217;50.004;8.266;2023-06-26T14:59:57;9.38;;;2.80;;
77220;SDS011;66217;50.004;8.266;2023-06-26T15:02:22;14.45;;;2.60;;
77220;SDS011;66217;50.004;8.266;2023-06-26T15:04:48;6.97;;;2.35;;
77220;SDS011;66217;50.004;8.266;2023-06-26T15:07:13;8.80;;;2.38;;
77220;SDS011;66217;50.004;8.266;2023-06-26T15:09:39;6.03;;;2.00;;
77220;SDS011;66217;50.004;8.266;2023-06-26T15:12:04;8.65;;;2.42;;
77220;SDS011;66217;50.004;8.266;2023-06-26T15:14:30;6.43;;;2.17;;
77220;SDS011;66217;50.004;8.266;2023-06-26T15:16:55;5.32;;;2.00;;
77220;SDS011;66217;50.004;8.266;2023-06-26T15:19:20;5.85;;;2.30;;
77220;SDS011;66217;50.004;8.266;2023-06-26T15:21:46;6.68;;;2.20;;
77220;SDS011;66217;50.004;8.266;2023-06-26T15:24:11;5.90;;;3.03;;
77220;SDS011;66217;50.004;8.266;2023-06-26T15:26:37;7.10;;;2.22;;
77220;SDS011;66217;50.004;8.266;2023-06-26T15:29:02;6.32;;;2.28;;
77220;SDS011;66217;50.004;8.266;2023-06-26T15:31:28;9.68;;;2.33;;
77220;SDS011;66217;50.004;8.266;2023-06-26T15:33:55;6.10;;;2.30;;
77220;SDS011;66217;50.004;8.266;2023-06-26T15:36:21;6.10;;;2.30;;
77220;SDS011;66217;50.004;8.266;2023-06-26T15:38:46;8.20;;;2.20;;
77220;SDS011;66217;50.004;8.266;2023-06-26T15:41:12;9.63;;;2.17;;
77220;SDS011;66217;50.004;8.266;2023-06-26T15:43:37;8.35;;;2.42;;
77220;SDS011;66217;50.004;8.266;2023-06-26T15:46:04;4.95;;;2.05;;
77220;SDS011;66217;50.004;8.266;2023-06-26T15:48:31;7.22;;;2.13;;
77220;SDS011;66217;50.004;8.266;2023-06-26T15:50:57;5.55;;;2.50;;
77220;SDS011;66217;50.004;8.266;2023-06-26T15:53:36;7.28;;;2.50;;
77220;SDS011;66217;50.004;8.266;2023-06-26T15:56:06;8.52;;;2.10;;
77220;SDS011;66217;50.004;8.266;2023-06-26T15:58:33;9.00;;;2.47;;
77220;SDS011;66217;50.004;8.266;2023-06-26T16:01:00;5.85;;;2.20;;
77220;SDS011;66217;50.004;8.266;2023-06-26T16:03:26;6.72;;;2.33;;
77220;SDS011;66217;50.004;8.266;2023-06-26T16:05:51;5.78;;;2.33;;
77220;SDS011;66217;50.004;8.266;2023-06-26T16:08:17;7.22;;;2.20;;
77220;SDS011;66217;50.004;8.266;2023-06-26T16:10:42;8.10;;;2.08;;
77220;SDS011;66217;50.004;8.266;2023-06-26T16:13:08;7.20;;;2.58;;
77220;SDS011;66217;50.004;8.266;2023-06-26T16:15:33;5.68;;;2.10;;
77220;SDS011;66217;50.004;8.266;2023-06-26T16:17:59;6.30;;;2.15;;
77220;SDS011;66217;50.004;8.266;2023-06-26T16:20:24;7.47;;;2.50;;
77220;SDS011;66217;50.004;8.266;2023-06-26T16:22:49;6.68;;;2.15;;
77220;SDS011;66217;50.004;8.266;2023-06-26T16:25:15;4.70;;;2.10;;
77220;SDS011;66217;50.004;8.266;2023-06-26T16:27:41;6.47;;;2.20;;
77220;SDS011;66217;50.004;8.266;2023-06-26T16:30:08;7.97;;;2.35;;
77220;SDS011;66217;50.004;8.266;2023-06-26T16:32:34;6.18;;;2.42;;
77220;SDS011;66217;50.004;8.266;2023-06-26T16:35:02;4.07;;;2.00;;
77220;SDS011;66217;50.004;8.266;2023-06-26T16:37:28;5.95;;;2.05;;
77220;SDS011;66217;50.004;8.266;2023-06-26T16:39:54;4.72;;;1.90;;
77220;SDS011;66217;50.004;8.266;2023-06-26T16:42:19;8.20;;;2.35;;
77220;SDS011;66217;50.004;8.266;2023-06-26T16:44:45;5.50;;;2.05;;
77220;SDS011;66217;50.004;8.266;2023-06-26T16:47:13;7.53;;;2.17;;
77220;SDS011;66217;50.004;8.266;2023-06-26T16:49:42;9.88;;;2.30;;
77220;SDS011;66217;50.004;8.266;2023-06-26T16:52:08;6.22;;;2.10;;
77220;SDS011;66217;50.004;8.266;2023-06-26T16:54:33;7.20;;;2.40;;
77220;SDS011;66217;50.004;8.266;2023-06-26T16:56:59;6.03;;;2.10;;
77220;SDS011;66217;50.004;8.266;2023-06-26T16:59:25;6.47;;;1.95;;
77220;SDS011;66217;50.004;8.266;2023-06-26T17:01:52;5.68;;;2.00;;
77220;SDS011;66217;50.004;8.266;2023-06-26T17:04:18;4.68;;;2.00;;
77220;SDS011;66217;50.004;8.266;2023-06-26T17:06:45;4.18;;;1.92;;
77220;SDS011;66217;50.004;8.266;2023-06-26T17:09:10;5.45;;;2.00;;
77220;SDS011;66217;50.004;8.266;2023-06-26T17:11:36;5.85;;;2.25;;
77220;SDS011;66217;50.004;8.266;2023-06-26T17:14:02;8.60;;;2.13;;
77220;SDS011;66217;50.004;8.266;2023-06-26T17:16:27;9.30;;;2.72;;
77220;SDS011;66217;50.004;8.266;2023-06-26T17:18:53;6.32;;;2.08;;
77220;SDS011;66217;50.004;8.266;2023-06-26T17:21:18;7.05;;;2.30;;
77220;SDS011;66217;50.004;8.266;2023-06-26T17:23:44;6.43;;;2.03;;
77220;SDS011;66217;50.004;8.266;2023-06-26T17:26:09;6.20;;;2.33;;
77220;SDS011;66217;50.004;8.266;2023-06-26T17:28:34;9.00;;;2.35;;
77220;SDS011;66217;50.004;8.266;2023-06-26T17:31:01;9.70;;;2.88;;
77220;SDS011;66217;50.004;8.266;2023-06-26T17:33:29;7.07;;;2.25;;
77220;SDS011;66217;50.004;8.266;2023-06-26T17:35:54;8.38;;;2.60;;
77220;SDS011;66217;50.004;8.266;2023-06-26T17:38:20;5.38;;;1.90;;
77220;SDS011;66217;50.004;8.266;2023-06-26T17:40:45;13.10;;;2.22;;
77220;SDS011;66217;50.004;8.266;2023-06-26T17:43:11;5.95;;;2.42;;
77220;SDS011;66217;50.004;8.266;2023-06-26T17:45:36;4.03;;;1.65;;
77220;SDS011;66217;50.004;8.266;2023-06-26T17:48:03;5.28;;;2.08;;
77220;SDS011;66217;50.004;8.266;2023-06-26T17:50:29;5.75;;;2.00;;
77220;SDS011;66217;50.004;8.266;2023-06-26T17:52:55;8.30;;;1.90;;
77220;SDS011;66217;50.004;8.266;2023-06-26T17:55:23;8.35;;;1.92;;
77220;SDS011;66217;50.004;8.266;2023-06-26T17:57:49;8.90;;;2.08;;
77220;SDS011;66217;50.004;8.266;2023-06-26T18:00:14;5.85;;;1.88;;
77220;SDS011;66217;50.004;8.266;2023-06-26T18:02:40;10.07;;;2.13;;
77220;SDS011;66217;50.004;8.266;2023-06-26T18:05:06;6.53;;;2.17;;
77220;SDS011;66217;50.004;8.266;2023-06-26T18:07:32;9.48;;;2.10;;
77220;SDS011;66217;50.004;8.266;2023-06-26T18:09:58;6.93;;;2.15;;
77220;SDS011;66217;50.004;8.266;2023-06-26T18:12:23;7.72;;;2.17;;
77220;SDS011;66217;50.004;8.266;2023-06-26T18:14:49;5.75;;;1.88;;
77220;SDS011;66217;50.004;8.266;2023-06-26T18:17:14;8.35;;;2.20;;
77220;SDS011;66217;50.004;8.266;2023-06-26T18:19:40;4.63;;;1.95;;
77220;SDS011;66217;50.004;8.266;2023-06-26T18:22:06;8.77;;;2.20;;
77220;SDS011;66217;50.004;8.266;2023-06-26T18:24:31;8.68;;;2.22;;
77220;SDS011;66217;50.004;8.266;2023-06-26T18:26:57;4.18;;;1.80;;
77220;SDS011;66217;50.004;8.266;2023-06-26T18:29:22;5.18;;;2.10;;
77220;SDS011;66217;50.004;8.266;2023-06-26T18:31:48;4.55;;;1.75;;
77220;SDS011;66217;50.004;8.266;2023-06-26T18:34:13;9.60;;;2.03;;
77220;SDS011;66217;50.004;8.266;2023-06-26T18:36:39;4.93;;;1.60;;
77220;SDS011;66217;50.004;8.266;2023-06-26T18:39:04;4.60;;;1.88;;
77220;SDS011;66217;50.004;8.266;2023-06-26T18:41:30;7.50;;;2.10;;
77220;SDS011;66217;50.004;8.266;2023-06-26T18:43:56;4.30;;;1.90;;
77220;SDS011;66217;50.004;8.266;2023-06-26T18:46:21;8.63;;;2.53;;
77220;SDS011;66217;50.004;8.266;2023-06-26T18:48:53;5.07;;;2.00;;
77220;SDS011;66217;50.004;8.266;2023-06-26T18:51:24;9.05;;;2.08;;
77220;SDS011;66217;50.004;8.266;2023-06-26T18:53:50;5.88;;;2.00;;
77220;SDS011;66217;50.004;8.266;2023-06-26T18:56:15;12.50;;;2.38;;
77220;SDS011;66217;50.004;8.266;2023-06-26T18:58:41;4.38;;;1.73;;
77220;SDS011;66217;50.004;8.266;2023-06-26T19:01:06;6.05;;;2.33;;
77220;SDS011;66217;50.004;8.266;2023-06-26T19:03:32;5.00;;;2.03;;
77220;SDS011;66217;50.004;8.266;2023-06-26T19:05:57;3.88;;;1.88;;
77220;SDS011;66217;50.004;8.266;2023-06-26T19:08:23;4.40;;;1.92;;
77220;SDS011;66217;50.004;8.266;2023-06-26T19:10:48;6.18;;;2.05;;
77220;SDS011;66217;50.004;8.266;2023-06-26T19:13:14;5.57;;;1.95;;
77220;SDS011;66217;50.004;8.266;2023-06-26T19:15:39;3.85;;;1.80;;
77220;SDS011;66217;50.004;8.266;2023-06-26T19:18:04;5.35;;;2.08;;
77220;SDS011;66217;50.004;8.266;2023-06-26T19:20:30;6.38;;;2.65;;
77220;SDS011;66217;50.004;8.266;2023-06-26T19:22:55;6.13;;;1.90;;
77220;SDS011;66217;50.004;8.266;2023-06-26T19:25:21;7.43;;;2.05;;
77220;SDS011;66217;50.004;8.266;2023-06-26T19:27:47;4.53;;;1.80;;
77220;SDS011;66217;50.004;8.266;2023-06-26T19:30:13;5.50;;;2.08;;
77220;SDS011;66217;50.004;8.266;2023-06-26T19:32:38;5.35;;;1.92;;
77220;SDS011;66217;50.004;8.266;2023-06-26T19:35:04;4.60;;;1.88;;
77220;SDS011;66217;50.004;8.266;2023-06-26T19:37:30;6.05;;;1.83;;
77220;SDS011;66217;50.004;8.266;2023-06-26T19:39:55;8.55;;;1.88;;
77220;SDS011;66217;50.004;8.266;2023-06-26T19:42:21;4.47;;;1.83;;
77220;SDS011;66217;50.004;8.266;2023-06-26T19:44:46;5.72;;;2.53;;
77220;SDS011;66217;50.004;8.266;2023-06-26T19:47:12;4.30;;;1.65;;
77220;SDS011;66217;50.004;8.266;2023-06-26T19:49:37;4.78;;;2.10;;
77220;SDS011;66217;50.004;8.266;2023-06-26T19:52:02;4.88;;;2.00;;
77220;SDS011;66217;50.004;8.266;2023-06-26T19:54:28;6.18;;;2.15;;
77220;SDS011;66217;50.004;8.266;2023-06-26T19:56:54;19.67;;;2.20;;
77220;SDS011;66217;50.004;8.266;2023-06-26T19:59:21;7.97;;;2.15;;
77220;SDS011;66217;50.004;8.266;2023-06-26T20:01:46;5.95;;;2.17;;
77220;SDS011;66217;50.004;8.266;2023-06-26T20:04:13;5.45;;;1.95;;
77220;SDS011;66217;50.004;8.266;2023-06-26T20:06:39;5.18;;;2.05;;
77220;SDS011;66217;50.004;8.266;2023-06-26T20:09:05;7.43;;;2.03;;
77220;SDS011;66217;50.004;8.266;2023-06-26T20:11:31;10.35;;;2.15;;
77220;SDS011;66217;50.004;8.266;2023-06-26T20:13:57;4.68;;;1.80;;
77220;SDS011;66217;50.004;8.266;2023-06-26T20:16:22;5.22;;;2.42;;
77220;SDS011;66217;50.004;8.266;2023-06-26T20:18:48;6.10;;;1.90;;
77220;SDS011;66217;50.004;8.266;2023-06-26T20:21:13;5.25;;;2.08;;
77220;SDS011;66217;50.004;8.266;2023-06-26T20:23:40;4.93;;;1.80;;
77220;SDS011;66217;50.004;8.266;2023-06-26T20:26:06;4.40;;;1.95;;
77220;SDS011;66217;50.004;8.266;2023-06-26T20:28:31;9.13;;;1.80;;
77220;SDS011;66217;50.004;8.266;2023-06-26T20:30:56;9.73;;;2.25;;
77220;SDS011;66217;50.004;8.266;2023-06-26T20:33:22;7.38;;;1.75;;
77220;SDS011;66217;50.004;8.266;2023-06-26T20:35:47;5.40;;;1.95;;
77220;SDS011;66217;50.004;8.266;2023-06-26T20:38:14;5.88;;;1.95;;
77220;SDS011;66217;50.004;8.266;2023-06-26T20:40:39;3.53;;;1.75;;
77220;SDS011;66217;50.004;8.266;2023-06-26T20:43:04;5.43;;;1.80;;
77220;SDS011;66217;50.004;8.266;2023-06-26T20:45:32;4.22;;;1.80;;
77220;SDS011;66217;50.004;8.266;2023-06-26T20:47:58;7.05;;;1.90;;
77220;SDS011;66217;50.004;8.266;2023-06-26T20:50:23;8.02;;;1.88;;
77220;SDS011;66217;50.004;8.266;2023-06-26T20:52:50;5.10;;;1.80;;
77220;SDS011;66217;50.004;8.266;2023-06-26T20:55:16;5.53;;;2.00;;
77220;SDS011;66217;50.004;8.266;2023-06-26T20:57:41;7.43;;;1.95;;
77220;SDS011;66217;50.004;8.266;2023-06-26T21:00:07;8.77;;;1.80;;
77220;SDS011;66217;50.004;8.266;2023-06-26T21:02:34;7.50;;;2.78;;
77220;SDS011;66217;50.004;8.266;2023-06-26T21:05:00;5.70;;;2.00;;
77220;SDS011;66217;50.004;8.266;2023-06-26T21:07:26;5.55;;;1.80;;
77220;SDS011;66217;50.004;8.266;2023-06-26T21:09:51;4.82;;;1.85;;
77220;SDS011;66217;50.004;8.266;2023-06-26T21:12:18;3.90;;;1.60;;
77220;SDS011;66217;50.004;8.266;2023-06-26T21:14:46;4.85;;;1.90;;
77220;SDS011;66217;50.004;8.266;2023-06-26T21:17:11;4.82;;;2.08;;
77220;SDS011;66217;50.004;8.266;2023-06-26T21:19:37;3.65;;;2.20;;
77220;SDS011;66217;50.004;8.266;2023-06-26T21:22:02;5.22;;;1.75;;
77220;SDS011;66217;50.004;8.266;2023-06-26T21:24:28;5.88;;;2.05;;
77220;SDS011;66217;50.004;8.266;2023-06-26T21:26:54;9.02;;;2.10;;
77220;SDS011;66217;50.004;8.266;2023-06-26T21:29:19;3.72;;;1.75;;
77220;SDS011;66217;50.004;8.266;2023-06-26T21:31:47;4.00;;;1.75;;
77220;SDS011;66217;50.004;8.266;2023-06-26T21:34:12;5.35;;;1.70;;
77220;SDS011;66217;50.004;8.266;2023-06-26T21:36:39;6.80;;;2.10;;
77220;SDS011;66217;50.004;8.266;2023-06-26T21:39:04;4.55;;;2.10;;
77220;SDS011;66217;50.004;8.266;2023-06-26T21:41:31;5.38;;;1.83;;
77220;SDS011;66217;50.004;8.266;2023-06-26T21:43:56;5.32;;;2.17;;
77220;SDS011;66217;50.004;8.266;2023-06-26T21:46:22;6.47;;;2.00;;
77220;SDS011;66217;50.004;8.266;2023-06-26T21:48:47;6.38;;;2.00;;
77220;SDS011;66217;50.004;8.266;2023-06-26T21:51:12;7.85;;;2.22;;
77220;SDS011;66217;50.004;8.266;2023-06-26T21:53:38;7.40;;;2.10;;
77220;SDS011;66217;50.004;8.266;2023-06-26T21:56:03;6.72;;;2.35;;
77220;SDS011;66217;50.004;8.266;2023-06-26T21:58:29;5.25;;;1.98;;
77220;SDS011;66217;50.004;8.266;2023-06-26T22:00:54;9.18;;;2.10;;
77220;SDS011;66217;50.004;8.266;2023-06-26T22:03:20;4.50;;;1.77;;
77220;SDS011;66217;50.004;8.266;2023-06-26T22:05:45;5.30;;;2.08;;
77220;SDS011;66217;50.004;8.266;2023-06-26T22:08:10;6.97;;;2.30;;
77220;SDS011;66217;50.004;8.266;2023-06-26T22:10:36;7.57;;;1.80;;
77220;SDS011;66217;50.004;8.266;2023-06-26T22:13:01;6.35;;;2.42;;
77220;SDS011;66217;50.004;8.266;2023-06-26T22:15:28;6.57;;;1.88;;
77220;SDS011;66217;50.004;8.266;2023-06-26T22:17:55;7.10;;;2.00;;
77220;SDS011;66217;50.004;8.266;2023-06-26T22:20:21;4.93;;;1.88;;
77220;SDS011;66217;50.004;8.266;2023-06-26T22:22:48;5.03;;;1.90;;
77220;SDS011;66217;50.004;8.266;2023-06-26T22:25:13;6.50;;;1.95;;
77220;SDS011;66217;50.004;8.266;2023-06-26T22:27:57;4.55;;;1.98;;
77220;SDS011;66217;50.004;8.266;2023-06-26T22:30:23;9.90;;;2.13;;
77220;SDS011;66217;50.004;8.266;2023-06-26T22:32:49;5.20;;;1.70;;
77220;SDS011;66217;50.004;8.266;2023-06-26T22:35:16;6.03;;;2.13;;
77220;SDS011;66217;50.004;8.266;2023-06-26T22:37:42;4.65;;;1.63;;
77220;SDS011;66217;50.004;8.266;2023-06-26T22:40:09;5.07;;;2.00;;
77220;SDS011;66217;50.004;8.266;2023-06-26T22:42:35;8.30;;;1.60;;
77220;SDS011;66217;50.004;8.266;2023-06-26T22:45:02;4.22;;;1.90;;
77220;SDS011;66217;50.004;8.266;2023-06-26T22:47:28;3.25;;;1.70;;
77220;SDS011;66217;50.004;8.266;2023-06-26T22:49:54;4.90;;;2.30;;
77220;SDS011;66217;50.004;8.266;2023-06-26T22:52:20;3.60;;;1.67;;
77220;SDS011;66217;50.004;8.266;2023-06-26T22:54:45;4.28;;;1.63;;
77220;SDS011;66217;50.004;8.266;2023-06-26T22:57:11;3.25;;;1.77;;
77220;SDS011;66217;50.004;8.266;2023-06-26T22:59:36;3.97;;;1.60;;
77220;SDS011;66217;50.004;8.266;2023-06-26T23:02:01;3.70;;;1.70;;
77220;SDS011;66217;50.004;8.266;2023-06-26T23:04:27;6.32;;;1.67;;
77220;SDS011;66217;50.004;8.266;2023-06-26T23:06:52;3.63;;;1.45;;
77220;SDS011;66217;50.004;8.266;2023-06-26T23:09:22;3.15;;;1.73;;
77220;SDS011;66217;50.004;8.266;2023-06-26T23:11:48;6.22;;;1.75;;
77220;SDS011;66217;50.004;8.266;2023-06-26T23:14:13;6.93;;;1.63;;
77220;SDS011;66217;50.004;8.266;2023-06-26T23:16:40;5.38;;;1.67;;
77220;SDS011;66217;50.004;8.266;2023-06-26T23:19:06;3.75;;;1.58;;
77220;SDS011;66217;50.004;8.266;2023-06-26T23:21:33;11.20;;;2.00;;
77220;SDS011;66217;50.004;8.266;2023-06-26T23:24:01;3.08;;;1.73;;
77220;SDS011;66217;50.004;8.266;2023-06-26T23:26:27;3.95;;;1.67;;
77220;SDS011;66217;50.004;8.266;2023-06-26T23:28:56;6.15;;;1.80;;
77220;SDS011;66217;50.004;8.266;2023-06-26T23:31:22;2.10;;;1.50;;
77220;SDS011;66217;50.004;8.266;2023-06-26T23:33:49;1.90;;;1.48;;
77220;SDS011;66217;50.004;8.266;2023-06-26T23:36:14;5.00;;;1.73;;
77220;SDS011;66217;50.004;8.266;2023-06-26T23:38:40;5.30;;;1.70;;
77220;SDS011;66217;50.004;8.266;2023-06-26T23:41:10;4.38;;;1.75;;
77220;SDS011;66217;50.004;8.266;2023-06-26T23:43:37;4.60;;;1.63;;
77220;SDS011;66217;50.004;8.266;2023-06-26T23:46:06;5.72;;;1.90;;
77220;SDS011;66217;50.004;8.266;2023-06-26T23:48:39;6.60;;;1.60;;
77220;SDS011;66217;50.004;8.266;2023-06-26T23:51:05;2.90;;;1.70;;
77220;SDS011;66217;50.004;8.266;2023-06-26T23:53:31;5.75;;;2.15;;
77220;SDS011;66217;50.004;8.266;2023-06-26T23:55:57;3.65;;;1.88;;
77220;SDS011;66217;50.004;8.266;2023-06-26T23:58:22;3.95;;;1.60;;
